sensor_id;sensor_type;location;lat;lon;timestamp;P1;durP1;ratioP1;P2;durP2;ratioP2
40433;SDS011;26146;51.114;5.654;2023-06-24T00:02:10;9.70;;;5.15;;
40433;SDS011;26146;51.114;5.654;2023-06-24T00:06:11;10.50;;;5.75;;
40433;SDS011;26146;51.114;5.654;2023-06-24T00:10:18;10.40;;;6.15;;
40433;SDS011;26146;51.114;5.654;2023-06-24T00:14:19;11.82;;;7.15;;
40433;SDS011;26146;51.114;5.654;2023-06-24T00:18:21;13.30;;;7.22;;
40433;SDS011;26146;51.114;5.654;2023-06-24T00:22:24;13.02;;;7.30;;
40433;SDS011;26146;51.114;5.654;2023-06-24T00:26:25;11.82;;;7.55;;
40433;SDS011;26146;51.114;5.654;2023-06-24T00:30:26;15.05;;;9.65;;
40433;SDS011;26146;51.114;5.654;2023-06-24T00:34:27;19.27;;;9.13;;
40433;SDS011;26146;51.114;5.654;2023-06-24T00:38:28;18.92;;;10.68;;
40433;SDS011;26146;51.114;5.654;2023-06-24T00:42:32;16.93;;;10.23;;
40433;SDS011;26146;51.114;5.654;2023-06-24T00:46:33;15.50;;;9.80;;
40433;SDS011;26146;51.114;5.654;2023-06-24T00:50:35;17.05;;;10.48;;
40433;SDS011;26146;51.114;5.654;2023-06-24T00:54:37;15.63;;;10.80;;
40433;SDS011;26146;51.114;5.654;2023-06-24T00:58:38;18.10;;;11.45;;
40433;SDS011;26146;51.114;5.654;2023-06-24T01:02:39;19.05;;;12.07;;
40433;SDS011;26146;51.114;5.654;2023-06-24T01:06:42;19.30;;;11.98;;
40433;SDS011;26146;51.114;5.654;2023-06-24T01:10:46;18.23;;;12.07;;
40433;SDS011;26146;51.114;5.654;2023-06-24T01:14:47;18.52;;;11.77;;
40433;SDS011;26146;51.114;5.654;2023-06-24T01:18:48;19.05;;;12.68;;
40433;SDS011;26146;51.114;5.654;2023-06-24T01:23:06;18.17;;;11.55;;
40433;SDS011;26146;51.114;5.654;2023-06-24T01:32:10;16.98;;;11.73;;
40433;SDS011;26146;51.114;5.654;2023-06-24T01:36:28;18.33;;;11.75;;
40433;SDS011;26146;51.114;5.654;2023-06-24T01:40:34;16.58;;;10.68;;
40433;SDS011;26146;51.114;5.654;2023-06-24T01:44:42;18.02;;;10.80;;
40433;SDS011;26146;51.114;5.654;2023-06-24T01:48:45;18.23;;;11.40;;
40433;SDS011;26146;51.114;5.654;2023-06-24T01:52:47;17.67;;;10.45;;
40433;SDS011;26146;51.114;5.654;2023-06-24T01:56:51;15.45;;;9.60;;
40433;SDS011;26146;51.114;5.654;2023-06-24T02:00:54;16.40;;;9.30;;
40433;SDS011;26146;51.114;5.654;2023-06-24T02:04:56;14.95;;;7.90;;
40433;SDS011;26146;51.114;5.654;2023-06-24T02:08:58;13.75;;;7.90;;
40433;SDS011;26146;51.114;5.654;2023-06-24T02:13:04;13.93;;;7.32;;
40433;SDS011;26146;51.114;5.654;2023-06-24T02:17:06;15.25;;;8.05;;
40433;SDS011;26146;51.114;5.654;2023-06-24T02:21:09;14.57;;;8.60;;
40433;SDS011;26146;51.114;5.654;2023-06-24T02:25:11;14.43;;;8.52;;
40433;SDS011;26146;51.114;5.654;2023-06-24T02:29:13;20.88;;;11.45;;
40433;SDS011;26146;51.114;5.654;2023-06-24T02:33:14;29.00;;;14.52;;
40433;SDS011;26146;51.114;5.654;2023-06-24T02:37:16;32.17;;;15.93;;
40433;SDS011;26146;51.114;5.654;2023-06-24T02:41:16;29.63;;;15.50;;
40433;SDS011;26146;51.114;5.654;2023-06-24T02:45:17;29.92;;;14.55;;
40433;SDS011;26146;51.114;5.654;2023-06-24T02:49:19;29.67;;;14.10;;
40433;SDS011;26146;51.114;5.654;2023-06-24T02:53:21;29.75;;;13.77;;
40433;SDS011;26146;51.114;5.654;2023-06-24T02:57:23;25.35;;;13.35;;
40433;SDS011;26146;51.114;5.654;2023-06-24T03:01:25;24.15;;;13.02;;
40433;SDS011;26146;51.114;5.654;2023-06-24T03:05:28;21.73;;;11.63;;
40433;SDS011;26146;51.114;5.654;2023-06-24T03:09:33;22.92;;;11.68;;
40433;SDS011;26146;51.114;5.654;2023-06-24T03:13:35;22.65;;;11.98;;
40433;SDS011;26146;51.114;5.654;2023-06-24T03:17:36;18.92;;;10.60;;
40433;SDS011;26146;51.114;5.654;2023-06-24T03:21:37;20.73;;;10.77;;
40433;SDS011;26146;51.114;5.654;2023-06-24T03:25:38;17.65;;;10.05;;
40433;SDS011;26146;51.114;5.654;2023-06-24T03:29:39;17.13;;;9.57;;
40433;SDS011;26146;51.114;5.654;2023-06-24T03:33:40;19.00;;;9.65;;
40433;SDS011;26146;51.114;5.654;2023-06-24T03:37:44;16.17;;;9.52;;
40433;SDS011;26146;51.114;5.654;2023-06-24T03:41:45;16.35;;;8.95;;
40433;SDS011;26146;51.114;5.654;2023-06-24T03:45:46;14.63;;;8.75;;
40433;SDS011;26146;51.114;5.654;2023-06-24T03:49:48;17.45;;;9.50;;
40433;SDS011;26146;51.114;5.654;2023-06-24T03:53:49;16.48;;;9.77;;
40433;SDS011;26146;51.114;5.654;2023-06-24T03:57:50;17.00;;;9.52;;
40433;SDS011;26146;51.114;5.654;2023-06-24T04:01:51;15.15;;;8.88;;
40433;SDS011;26146;51.114;5.654;2023-06-24T04:05:53;15.93;;;8.52;;
40433;SDS011;26146;51.114;5.654;2023-06-24T04:09:57;14.63;;;8.18;;
40433;SDS011;26146;51.114;5.654;2023-06-24T04:13:58;15.27;;;7.80;;
40433;SDS011;26146;51.114;5.654;2023-06-24T04:17:59;12.23;;;7.13;;
40433;SDS011;26146;51.114;5.654;2023-06-24T04:22:00;15.10;;;7.70;;
40433;SDS011;26146;51.114;5.654;2023-06-24T04:26:01;12.27;;;7.57;;
40433;SDS011;26146;51.114;5.654;2023-06-24T04:30:03;13.32;;;7.70;;
40433;SDS011;26146;51.114;5.654;2023-06-24T04:34:04;13.57;;;7.50;;
40433;SDS011;26146;51.114;5.654;2023-06-24T04:38:05;13.50;;;7.90;;
40433;SDS011;26146;51.114;5.654;2023-06-24T04:42:06;14.57;;;8.27;;
40433;SDS011;26146;51.114;5.654;2023-06-24T04:46:07;13.80;;;8.35;;
40433;SDS011;26146;51.114;5.654;2023-06-24T04:50:08;14.23;;;7.82;;
40433;SDS011;26146;51.114;5.654;2023-06-24T04:54:10;14.32;;;7.82;;
40433;SDS011;26146;51.114;5.654;2023-06-24T04:58:12;14.38;;;8.43;;
40433;SDS011;26146;51.114;5.654;2023-06-24T05:02:13;13.35;;;7.18;;
40433;SDS011;26146;51.114;5.654;2023-06-24T05:06:14;11.38;;;6.43;;
40433;SDS011;26146;51.114;5.654;2023-06-24T05:10:15;10.90;;;6.18;;
40433;SDS011;26146;51.114;5.654;2023-06-24T05:14:16;11.52;;;5.35;;
40433;SDS011;26146;51.114;5.654;2023-06-24T05:18:17;12.90;;;5.70;;
40433;SDS011;26146;51.114;5.654;2023-06-24T05:22:18;10.90;;;5.32;;
40433;SDS011;26146;51.114;5.654;2023-06-24T05:26:19;11.75;;;5.85;;
40433;SDS011;26146;51.114;5.654;2023-06-24T05:30:20;9.82;;;4.78;;
40433;SDS011;26146;51.114;5.654;2023-06-24T05:34:21;11.27;;;5.28;;
40433;SDS011;26146;51.114;5.654;2023-06-24T05:38:22;10.77;;;4.75;;
40433;SDS011;26146;51.114;5.654;2023-06-24T05:42:23;11.35;;;5.13;;
40433;SDS011;26146;51.114;5.654;2023-06-24T05:46:26;10.07;;;4.93;;
40433;SDS011;26146;51.114;5.654;2023-06-24T05:50:27;11.23;;;5.13;;
40433;SDS011;26146;51.114;5.654;2023-06-24T05:54:28;10.00;;;4.20;;
40433;SDS011;26146;51.114;5.654;2023-06-24T05:58:29;8.48;;;4.40;;
40433;SDS011;26146;51.114;5.654;2023-06-24T06:02:30;9.02;;;4.15;;
40433;SDS011;26146;51.114;5.654;2023-06-24T06:06:31;9.30;;;4.20;;
40433;SDS011;26146;51.114;5.654;2023-06-24T06:10:32;7.53;;;3.60;;
40433;SDS011;26146;51.114;5.654;2023-06-24T06:14:33;8.82;;;3.40;;
40433;SDS011;26146;51.114;5.654;2023-06-24T06:18:34;8.55;;;3.50;;
40433;SDS011;26146;51.114;5.654;2023-06-24T06:22:35;8.60;;;3.58;;
40433;SDS011;26146;51.114;5.654;2023-06-24T06:26:44;7.15;;;2.95;;
40433;SDS011;26146;51.114;5.654;2023-06-24T06:30:45;7.63;;;3.28;;
40433;SDS011;26146;51.114;5.654;2023-06-24T06:34:46;9.20;;;3.20;;
40433;SDS011;26146;51.114;5.654;2023-06-24T06:38:47;6.82;;;3.05;;
40433;SDS011;26146;51.114;5.654;2023-06-24T06:42:48;7.22;;;3.30;;
40433;SDS011;26146;51.114;5.654;2023-06-24T06:46:49;6.70;;;3.03;;
40433;SDS011;26146;51.114;5.654;2023-06-24T06:50:51;6.65;;;2.60;;
40433;SDS011;26146;51.114;5.654;2023-06-24T06:54:53;7.80;;;2.80;;
40433;SDS011;26146;51.114;5.654;2023-06-24T06:58:55;6.72;;;2.58;;
40433;SDS011;26146;51.114;5.654;2023-06-24T07:02:56;7.82;;;2.40;;
40433;SDS011;26146;51.114;5.654;2023-06-24T07:06:57;6.90;;;2.38;;
40433;SDS011;26146;51.114;5.654;2023-06-24T07:10:57;6.38;;;2.20;;
40433;SDS011;26146;51.114;5.654;2023-06-24T07:14:58;7.57;;;2.33;;
40433;SDS011;26146;51.114;5.654;2023-06-24T07:18:59;6.60;;;2.15;;
40433;SDS011;26146;51.114;5.654;2023-06-24T07:23:00;6.03;;;2.08;;
40433;SDS011;26146;51.114;5.654;2023-06-24T07:27:02;6.53;;;2.20;;
40433;SDS011;26146;51.114;5.654;2023-06-24T07:31:04;6.88;;;2.22;;
40433;SDS011;26146;51.114;5.654;2023-06-24T07:35:05;6.13;;;1.95;;
40433;SDS011;26146;51.114;5.654;2023-06-24T07:39:06;5.95;;;2.28;;
40433;SDS011;26146;51.114;5.654;2023-06-24T07:43:07;6.43;;;2.13;;
40433;SDS011;26146;51.114;5.654;2023-06-24T07:47:08;6.55;;;2.10;;
40433;SDS011;26146;51.114;5.654;2023-06-24T07:51:09;5.63;;;1.90;;
40433;SDS011;26146;51.114;5.654;2023-06-24T07:55:10;6.30;;;1.83;;
40433;SDS011;26146;51.114;5.654;2023-06-24T07:59:11;5.75;;;1.90;;
40433;SDS011;26146;51.114;5.654;2023-06-24T08:03:12;5.90;;;1.95;;
40433;SDS011;26146;51.114;5.654;2023-06-24T08:07:13;5.07;;;1.65;;
40433;SDS011;26146;51.114;5.654;2023-06-24T08:11:15;5.10;;;1.60;;
40433;SDS011;26146;51.114;5.654;2023-06-24T08:15:16;6.68;;;1.67;;
40433;SDS011;26146;51.114;5.654;2023-06-24T08:19:17;5.45;;;1.60;;
40433;SDS011;26146;51.114;5.654;2023-06-24T08:23:18;5.80;;;1.65;;
40433;SDS011;26146;51.114;5.654;2023-06-24T08:27:19;4.97;;;1.40;;
40433;SDS011;26146;51.114;5.654;2023-06-24T08:31:20;4.78;;;1.23;;
40433;SDS011;26146;51.114;5.654;2023-06-24T08:35:22;5.68;;;1.50;;
40433;SDS011;26146;51.114;5.654;2023-06-24T08:39:23;5.20;;;1.23;;
40433;SDS011;26146;51.114;5.654;2023-06-24T08:43:24;3.88;;;1.10;;
40433;SDS011;26146;51.114;5.654;2023-06-24T08:47:25;4.28;;;1.15;;
40433;SDS011;26146;51.114;5.654;2023-06-24T08:51:29;5.05;;;1.00;;
40433;SDS011;26146;51.114;5.654;2023-06-24T08:55:43;4.63;;;1.30;;
40433;SDS011;26146;51.114;5.654;2023-06-24T08:59:45;4.25;;;1.10;;
40433;SDS011;26146;51.114;5.654;2023-06-24T09:03:46;4.25;;;1.17;;
40433;SDS011;26146;51.114;5.654;2023-06-24T09:07:47;3.85;;;1.30;;
40433;SDS011;26146;51.114;5.654;2023-06-24T09:11:56;3.88;;;1.17;;
40433;SDS011;26146;51.114;5.654;2023-06-24T09:15:59;6.30;;;1.40;;
40433;SDS011;26146;51.114;5.654;2023-06-24T09:20:04;4.82;;;1.20;;
40433;SDS011;26146;51.114;5.654;2023-06-24T09:24:06;5.93;;;1.38;;
40433;SDS011;26146;51.114;5.654;2023-06-24T09:28:07;3.92;;;1.10;;
40433;SDS011;26146;51.114;5.654;2023-06-24T09:32:08;4.13;;;1.23;;
40433;SDS011;26146;51.114;5.654;2023-06-24T09:36:12;4.60;;;1.30;;
40433;SDS011;26146;51.114;5.654;2023-06-24T09:40:16;4.95;;;1.10;;
40433;SDS011;26146;51.114;5.654;2023-06-24T09:44:17;4.03;;;1.27;;
40433;SDS011;26146;51.114;5.654;2023-06-24T09:52:22;4.10;;;1.10;;
40433;SDS011;26146;51.114;5.654;2023-06-24T09:56:26;4.50;;;1.30;;
40433;SDS011;26146;51.114;5.654;2023-06-24T10:00:27;6.60;;;1.30;;
40433;SDS011;26146;51.114;5.654;2023-06-24T10:04:29;4.80;;;1.40;;
40433;SDS011;26146;51.114;5.654;2023-06-24T10:08:31;5.43;;;1.20;;
40433;SDS011;26146;51.114;5.654;2023-06-24T10:12:33;4.88;;;1.33;;
40433;SDS011;26146;51.114;5.654;2023-06-24T10:16:38;4.47;;;1.00;;
40433;SDS011;26146;51.114;5.654;2023-06-24T10:20:39;5.60;;;1.60;;
40433;SDS011;26146;51.114;5.654;2023-06-24T10:24:40;4.43;;;1.23;;
40433;SDS011;26146;51.114;5.654;2023-06-24T10:33:09;6.35;;;1.40;;
40433;SDS011;26146;51.114;5.654;2023-06-24T10:37:20;4.32;;;1.17;;
40433;SDS011;26146;51.114;5.654;2023-06-24T10:41:23;5.32;;;1.27;;
40433;SDS011;26146;51.114;5.654;2023-06-24T10:45:25;5.32;;;1.40;;
40433;SDS011;26146;51.114;5.654;2023-06-24T10:49:26;4.68;;;1.33;;
40433;SDS011;26146;51.114;5.654;2023-06-24T10:53:27;4.93;;;1.20;;
40433;SDS011;26146;51.114;5.654;2023-06-24T10:57:30;4.43;;;1.05;;
40433;SDS011;26146;51.114;5.654;2023-06-24T11:01:32;4.93;;;1.48;;
40433;SDS011;26146;51.114;5.654;2023-06-24T11:05:33;4.70;;;1.40;;
40433;SDS011;26146;51.114;5.654;2023-06-24T11:09:34;4.10;;;1.20;;
40433;SDS011;26146;51.114;5.654;2023-06-24T11:13:34;4.78;;;1.30;;
40433;SDS011;26146;51.114;5.654;2023-06-24T11:17:36;5.45;;;1.40;;
40433;SDS011;26146;51.114;5.654;2023-06-24T11:21:38;5.13;;;1.27;;
40433;SDS011;26146;51.114;5.654;2023-06-24T11:25:40;4.93;;;1.30;;
40433;SDS011;26146;51.114;5.654;2023-06-24T11:29:42;4.53;;;1.35;;
40433;SDS011;26146;51.114;5.654;2023-06-24T11:33:50;4.57;;;1.30;;
40433;SDS011;26146;51.114;5.654;2023-06-24T11:37:51;4.35;;;1.20;;
40433;SDS011;26146;51.114;5.654;2023-06-24T11:41:52;4.82;;;1.30;;
40433;SDS011;26146;51.114;5.654;2023-06-24T11:45:54;4.47;;;1.27;;
40433;SDS011;26146;51.114;5.654;2023-06-24T11:49:55;5.05;;;1.20;;
40433;SDS011;26146;51.114;5.654;2023-06-24T11:53:58;4.20;;;0.90;;
40433;SDS011;26146;51.114;5.654;2023-06-24T11:58:01;3.60;;;0.98;;
40433;SDS011;26146;51.114;5.654;2023-06-24T12:02:06;5.05;;;1.13;;
40433;SDS011;26146;51.114;5.654;2023-06-24T12:06:07;4.03;;;1.00;;
40433;SDS011;26146;51.114;5.654;2023-06-24T12:10:08;4.25;;;1.00;;
40433;SDS011;26146;51.114;5.654;2023-06-24T12:14:09;5.20;;;1.05;;
40433;SDS011;26146;51.114;5.654;2023-06-24T12:18:12;5.10;;;1.30;;
40433;SDS011;26146;51.114;5.654;2023-06-24T12:22:14;4.65;;;1.20;;
40433;SDS011;26146;51.114;5.654;2023-06-24T12:26:15;4.20;;;1.20;;
40433;SDS011;26146;51.114;5.654;2023-06-24T12:30:16;4.95;;;1.15;;
40433;SDS011;26146;51.114;5.654;2023-06-24T12:34:17;5.57;;;1.20;;
40433;SDS011;26146;51.114;5.654;2023-06-24T12:38:18;4.43;;;1.15;;
40433;SDS011;26146;51.114;5.654;2023-06-24T12:42:19;3.67;;;1.00;;
40433;SDS011;26146;51.114;5.654;2023-06-24T12:46:20;5.45;;;1.20;;
40433;SDS011;26146;51.114;5.654;2023-06-24T12:50:21;4.38;;;1.00;;
40433;SDS011;26146;51.114;5.654;2023-06-24T12:54:22;4.43;;;1.20;;
40433;SDS011;26146;51.114;5.654;2023-06-24T12:58:23;4.50;;;1.27;;
40433;SDS011;26146;51.114;5.654;2023-06-24T13:02:28;4.82;;;1.15;;
40433;SDS011;26146;51.114;5.654;2023-06-24T13:06:29;4.38;;;1.20;;
40433;SDS011;26146;51.114;5.654;2023-06-24T13:10:30;4.82;;;1.40;;
40433;SDS011;26146;51.114;5.654;2023-06-24T13:14:32;4.10;;;1.20;;
40433;SDS011;26146;51.114;5.654;2023-06-24T13:18:33;5.60;;;1.30;;
40433;SDS011;26146;51.114;5.654;2023-06-24T13:22:34;4.60;;;1.02;;
40433;SDS011;26146;51.114;5.654;2023-06-24T13:26:35;4.25;;;1.13;;
40433;SDS011;26146;51.114;5.654;2023-06-24T13:30:36;5.20;;;1.25;;
40433;SDS011;26146;51.114;5.654;2023-06-24T13:34:37;4.53;;;1.20;;
40433;SDS011;26146;51.114;5.654;2023-06-24T13:38:38;4.47;;;1.17;;
40433;SDS011;26146;51.114;5.654;2023-06-24T13:42:38;3.92;;;1.10;;
40433;SDS011;26146;51.114;5.654;2023-06-24T13:46:39;4.68;;;1.00;;
40433;SDS011;26146;51.114;5.654;2023-06-24T13:50:40;3.70;;;1.10;;
40433;SDS011;26146;51.114;5.654;2023-06-24T13:54:41;4.32;;;1.10;;
40433;SDS011;26146;51.114;5.654;2023-06-24T13:58:43;3.90;;;1.10;;
40433;SDS011;26146;51.114;5.654;2023-06-24T14:02:44;4.63;;;1.40;;
40433;SDS011;26146;51.114;5.654;2023-06-24T14:06:45;4.50;;;1.20;;
40433;SDS011;26146;51.114;5.654;2023-06-24T14:10:47;5.20;;;1.30;;
40433;SDS011;26146;51.114;5.654;2023-06-24T14:14:48;3.63;;;0.98;;
40433;SDS011;26146;51.114;5.654;2023-06-24T14:18:49;4.03;;;1.10;;
40433;SDS011;26146;51.114;5.654;2023-06-24T14:22:50;4.30;;;1.20;;
40433;SDS011;26146;51.114;5.654;2023-06-24T14:26:51;5.45;;;1.20;;
40433;SDS011;26146;51.114;5.654;2023-06-24T14:30:52;4.53;;;1.23;;
40433;SDS011;26146;51.114;5.654;2023-06-24T14:34:53;3.78;;;1.00;;
40433;SDS011;26146;51.114;5.654;2023-06-24T14:38:54;5.22;;;1.30;;
40433;SDS011;26146;51.114;5.654;2023-06-24T14:42:55;5.03;;;1.20;;
40433;SDS011;26146;51.114;5.654;2023-06-24T14:46:56;4.38;;;1.25;;
40433;SDS011;26146;51.114;5.654;2023-06-24T14:50:57;6.78;;;1.30;;
40433;SDS011;26146;51.114;5.654;2023-06-24T14:54:58;6.00;;;1.80;;
40433;SDS011;26146;51.114;5.654;2023-06-24T14:58:59;5.47;;;1.63;;
40433;SDS011;26146;51.114;5.654;2023-06-24T15:03:00;5.38;;;1.30;;
40433;SDS011;26146;51.114;5.654;2023-06-24T15:07:01;4.80;;;1.27;;
40433;SDS011;26146;51.114;5.654;2023-06-24T15:11:02;4.68;;;1.30;;
40433;SDS011;26146;51.114;5.654;2023-06-24T15:15:03;4.35;;;1.30;;
40433;SDS011;26146;51.114;5.654;2023-06-24T15:19:05;5.50;;;2.25;;
40433;SDS011;26146;51.114;5.654;2023-06-24T15:23:05;5.20;;;1.52;;
40433;SDS011;26146;51.114;5.654;2023-06-24T15:27:06;6.13;;;1.40;;
40433;SDS011;26146;51.114;5.654;2023-06-24T15:31:07;5.38;;;1.90;;
40433;SDS011;26146;51.114;5.654;2023-06-24T15:35:09;6.60;;;1.40;;
40433;SDS011;26146;51.114;5.654;2023-06-24T15:39:10;5.40;;;1.60;;
40433;SDS011;26146;51.114;5.654;2023-06-24T15:43:10;7.65;;;2.65;;
40433;SDS011;26146;51.114;5.654;2023-06-24T15:47:12;8.07;;;2.20;;
40433;SDS011;26146;51.114;5.654;2023-06-24T15:51:13;5.50;;;1.60;;
40433;SDS011;26146;51.114;5.654;2023-06-24T15:55:14;5.05;;;1.50;;
40433;SDS011;26146;51.114;5.654;2023-06-24T15:59:15;4.90;;;1.40;;
40433;SDS011;26146;51.114;5.654;2023-06-24T16:03:16;5.03;;;1.60;;
40433;SDS011;26146;51.114;5.654;2023-06-24T16:07:16;6.40;;;1.67;;
40433;SDS011;26146;51.114;5.654;2023-06-24T16:11:17;6.30;;;1.63;;
40433;SDS011;26146;51.114;5.654;2023-06-24T16:15:18;4.57;;;1.30;;
40433;SDS011;26146;51.114;5.654;2023-06-24T16:19:19;5.13;;;1.60;;
40433;SDS011;26146;51.114;5.654;2023-06-24T16:23:20;4.57;;;1.40;;
40433;SDS011;26146;51.114;5.654;2023-06-24T16:27:21;6.00;;;1.50;;
40433;SDS011;26146;51.114;5.654;2023-06-24T16:31:22;5.55;;;1.40;;
40433;SDS011;26146;51.114;5.654;2023-06-24T16:35:23;6.18;;;1.50;;
40433;SDS011;26146;51.114;5.654;2023-06-24T16:39:24;5.18;;;1.40;;
40433;SDS011;26146;51.114;5.654;2023-06-24T16:43:25;5.68;;;1.30;;
40433;SDS011;26146;51.114;5.654;2023-06-24T16:47:26;5.40;;;1.50;;
40433;SDS011;26146;51.114;5.654;2023-06-24T16:51:27;6.28;;;1.50;;
40433;SDS011;26146;51.114;5.654;2023-06-24T16:55:28;5.15;;;1.38;;
40433;SDS011;26146;51.114;5.654;2023-06-24T16:59:29;5.15;;;1.40;;
40433;SDS011;26146;51.114;5.654;2023-06-24T17:03:30;5.43;;;1.60;;
40433;SDS011;26146;51.114;5.654;2023-06-24T17:07:31;5.25;;;1.60;;
40433;SDS011;26146;51.114;5.654;2023-06-24T17:11:32;5.93;;;1.50;;
40433;SDS011;26146;51.114;5.654;2023-06-24T17:15:33;5.38;;;1.38;;
40433;SDS011;26146;51.114;5.654;2023-06-24T17:19:34;4.53;;;1.48;;
40433;SDS011;26146;51.114;5.654;2023-06-24T17:23:36;4.82;;;1.40;;
40433;SDS011;26146;51.114;5.654;2023-06-24T17:27:37;5.43;;;1.50;;
40433;SDS011;26146;51.114;5.654;2023-06-24T17:31:38;5.50;;;1.50;;
40433;SDS011;26146;51.114;5.654;2023-06-24T17:35:39;5.65;;;1.63;;
40433;SDS011;26146;51.114;5.654;2023-06-24T17:39:40;5.20;;;1.50;;
40433;SDS011;26146;51.114;5.654;2023-06-24T17:43:40;5.30;;;1.40;;
40433;SDS011;26146;51.114;5.654;2023-06-24T17:47:41;5.35;;;1.60;;
40433;SDS011;26146;51.114;5.654;2023-06-24T17:51:42;4.75;;;1.58;;
40433;SDS011;26146;51.114;5.654;2023-06-24T17:55:43;5.20;;;1.50;;
40433;SDS011;26146;51.114;5.654;2023-06-24T17:59:44;5.50;;;1.50;;
40433;SDS011;26146;51.114;5.654;2023-06-24T18:03:45;4.70;;;1.38;;
40433;SDS011;26146;51.114;5.654;2023-06-24T18:07:49;5.00;;;1.60;;
40433;SDS011;26146;51.114;5.654;2023-06-24T18:11:50;5.50;;;1.42;;
40433;SDS011;26146;51.114;5.654;2023-06-24T18:15:51;5.13;;;1.60;;
40433;SDS011;26146;51.114;5.654;2023-06-24T18:19:52;5.50;;;1.70;;
40433;SDS011;26146;51.114;5.654;2023-06-24T18:23:53;5.18;;;1.58;;
40433;SDS011;26146;51.114;5.654;2023-06-24T18:27:54;5.47;;;1.50;;
40433;SDS011;26146;51.114;5.654;2023-06-24T18:31:55;4.93;;;1.60;;
40433;SDS011;26146;51.114;5.654;2023-06-24T18:35:56;4.95;;;1.50;;
40433;SDS011;26146;51.114;5.654;2023-06-24T18:39:57;5.43;;;1.48;;
40433;SDS011;26146;51.114;5.654;2023-06-24T18:44:00;6.22;;;1.70;;
40433;SDS011;26146;51.114;5.654;2023-06-24T18:48:05;5.10;;;1.50;;
40433;SDS011;26146;51.114;5.654;2023-06-24T18:52:06;4.28;;;1.42;;
40433;SDS011;26146;51.114;5.654;2023-06-24T18:56:08;5.30;;;1.58;;
40433;SDS011;26146;51.114;5.654;2023-06-24T19:00:09;6.15;;;1.60;;
40433;SDS011;26146;51.114;5.654;2023-06-24T19:04:11;5.80;;;1.88;;
40433;SDS011;26146;51.114;5.654;2023-06-24T19:08:13;5.00;;;1.55;;
40433;SDS011;26146;51.114;5.654;2023-06-24T19:12:14;6.45;;;1.60;;
40433;SDS011;26146;51.114;5.654;2023-06-24T19:16:15;5.68;;;1.70;;
40433;SDS011;26146;51.114;5.654;2023-06-24T19:20:16;4.82;;;1.50;;
40433;SDS011;26146;51.114;5.654;2023-06-24T19:24:17;5.85;;;1.80;;
40433;SDS011;26146;51.114;5.654;2023-06-24T19:28:18;5.05;;;1.60;;
40433;SDS011;26146;51.114;5.654;2023-06-24T19:32:19;6.85;;;2.03;;
40433;SDS011;26146;51.114;5.654;2023-06-24T19:36:20;6.50;;;1.80;;
40433;SDS011;26146;51.114;5.654;2023-06-24T19:40:21;5.13;;;1.70;;
40433;SDS011;26146;51.114;5.654;2023-06-24T19:44:22;5.82;;;1.67;;
40433;SDS011;26146;51.114;5.654;2023-06-24T19:48:23;5.97;;;1.90;;
40433;SDS011;26146;51.114;5.654;2023-06-24T19:52:24;6.15;;;1.70;;
40433;SDS011;26146;51.114;5.654;2023-06-24T19:56:25;6.47;;;1.80;;
40433;SDS011;26146;51.114;5.654;2023-06-24T20:00:26;5.57;;;1.77;;
40433;SDS011;26146;51.114;5.654;2023-06-24T20:04:27;5.53;;;1.70;;
40433;SDS011;26146;51.114;5.654;2023-06-24T20:08:28;6.25;;;2.00;;
40433;SDS011;26146;51.114;5.654;2023-06-24T20:12:29;6.82;;;1.83;;
40433;SDS011;26146;51.114;5.654;2023-06-24T20:16:30;5.68;;;1.88;;
40433;SDS011;26146;51.114;5.654;2023-06-24T20:20:31;5.85;;;2.00;;
40433;SDS011;26146;51.114;5.654;2023-06-24T20:24:33;5.72;;;1.70;;
40433;SDS011;26146;51.114;5.654;2023-06-24T20:28:34;5.25;;;1.70;;
40433;SDS011;26146;51.114;5.654;2023-06-24T20:32:35;5.68;;;1.95;;
40433;SDS011;26146;51.114;5.654;2023-06-24T20:36:36;6.43;;;2.30;;
40433;SDS011;26146;51.114;5.654;2023-06-24T20:40:37;6.40;;;2.17;;
40433;SDS011;26146;51.114;5.654;2023-06-24T20:44:38;7.20;;;2.20;;
40433;SDS011;26146;51.114;5.654;2023-06-24T20:48:39;5.78;;;1.98;;
40433;SDS011;26146;51.114;5.654;2023-06-24T20:52:40;5.47;;;1.95;;
40433;SDS011;26146;51.114;5.654;2023-06-24T20:56:41;7.20;;;2.17;;
40433;SDS011;26146;51.114;5.654;2023-06-24T21:00:42;6.18;;;2.10;;
40433;SDS011;26146;51.114;5.654;2023-06-24T21:04:43;6.40;;;2.28;;
40433;SDS011;26146;51.114;5.654;2023-06-24T21:08:44;7.13;;;2.28;;
40433;SDS011;26146;51.114;5.654;2023-06-24T21:12:45;6.20;;;2.28;;
40433;SDS011;26146;51.114;5.654;2023-06-24T21:16:48;5.70;;;1.95;;
40433;SDS011;26146;51.114;5.654;2023-06-24T21:20:50;6.05;;;1.90;;
40433;SDS011;26146;51.114;5.654;2023-06-24T21:24:51;6.97;;;2.17;;
40433;SDS011;26146;51.114;5.654;2023-06-24T21:28:52;5.50;;;2.15;;
40433;SDS011;26146;51.114;5.654;2023-06-24T21:32:53;7.32;;;2.15;;
40433;SDS011;26146;51.114;5.654;2023-06-24T21:36:54;6.55;;;2.30;;
40433;SDS011;26146;51.114;5.654;2023-06-24T21:40:55;8.60;;;2.50;;
40433;SDS011;26146;51.114;5.654;2023-06-24T21:44:56;6.45;;;2.00;;
40433;SDS011;26146;51.114;5.654;2023-06-24T21:48:57;6.55;;;2.15;;
40433;SDS011;26146;51.114;5.654;2023-06-24T21:52:58;7.28;;;2.10;;
40433;SDS011;26146;51.114;5.654;2023-06-24T21:56:59;7.28;;;2.55;;
40433;SDS011;26146;51.114;5.654;2023-06-24T22:01:00;6.43;;;2.28;;
40433;SDS011;26146;51.114;5.654;2023-06-24T22:05:01;6.95;;;2.15;;
40433;SDS011;26146;51.114;5.654;2023-06-24T22:09:02;5.82;;;2.00;;
40433;SDS011;26146;51.114;5.654;2023-06-24T22:13:03;6.65;;;2.20;;
40433;SDS011;26146;51.114;5.654;2023-06-24T22:17:04;6.45;;;2.30;;
40433;SDS011;26146;51.114;5.654;2023-06-24T22:21:05;6.45;;;2.03;;
40433;SDS011;26146;51.114;5.654;2023-06-24T22:25:06;6.05;;;2.10;;
40433;SDS011;26146;51.114;5.654;2023-06-24T22:29:07;6.43;;;2.10;;
40433;SDS011;26146;51.114;5.654;2023-06-24T22:33:08;5.50;;;2.00;;
40433;SDS011;26146;51.114;5.654;2023-06-24T22:37:09;6.32;;;2.20;;
40433;SDS011;26146;51.114;5.654;2023-06-24T22:41:10;7.72;;;2.75;;
40433;SDS011;26146;51.114;5.654;2023-06-24T22:45:11;7.18;;;2.42;;
40433;SDS011;26146;51.114;5.654;2023-06-24T22:49:12;7.35;;;2.50;;
40433;SDS011;26146;51.114;5.654;2023-06-24T22:53:13;5.78;;;2.20;;
40433;SDS011;26146;51.114;5.654;2023-06-24T22:57:15;6.30;;;2.47;;
40433;SDS011;26146;51.114;5.654;2023-06-24T23:01:16;8.55;;;3.17;;
40433;SDS011;26146;51.114;5.654;2023-06-24T23:05:17;7.72;;;3.10;;
40433;SDS011;26146;51.114;5.654;2023-06-24T23:09:18;6.35;;;2.40;;
40433;SDS011;26146;51.114;5.654;2023-06-24T23:13:20;6.88;;;2.78;;
40433;SDS011;26146;51.114;5.654;2023-06-24T23:17:21;6.63;;;2.85;;
40433;SDS011;26146;51.114;5.654;2023-06-24T23:21:23;8.07;;;3.15;;
40433;SDS011;26146;51.114;5.654;2023-06-24T23:25:24;8.23;;;3.60;;
40433;SDS011;26146;51.114;5.654;2023-06-24T23:29:29;6.55;;;3.10;;
40433;SDS011;26146;51.114;5.654;2023-06-24T23:33:30;7.13;;;2.75;;
40433;SDS011;26146;51.114;5.654;2023-06-24T23:37:33;6.18;;;2.67;;
40433;SDS011;26146;51.114;5.654;2023-06-24T23:41:34;6.18;;;2.50;;
40433;SDS011;26146;51.114;5.654;2023-06-24T23:45:35;8.23;;;2.88;;
40433;SDS011;26146;51.114;5.654;2023-06-24T23:49:37;7.50;;;2.72;;
40433;SDS011;26146;51.114;5.654;2023-06-24T23:53:39;6.75;;;2.78;;
40433;SDS011;26146;51.114;5.654;2023-06-24T23:57:40;7.97;;;2.90;;
